createdAt,value
2017-10-14T00:00:34.302Z,0
2017-10-14T00:01:14.884Z,0
2017-10-14T00:01:55.444Z,0
2017-10-14T00:02:36.030Z,0
2017-10-14T00:03:16.597Z,0
2017-10-14T00:03:57.156Z,0
2017-10-14T00:04:37.735Z,0
2017-10-14T00:05:18.287Z,0
2017-10-14T00:05:58.845Z,0
2017-10-14T00:06:42.132Z,0
2017-10-14T00:07:22.716Z,0
2017-10-14T00:08:03.275Z,0
2017-10-14T00:08:43.840Z,0
2017-10-14T00:09:24.422Z,0
2017-10-14T00:10:04.986Z,0
2017-10-14T00:10:45.564Z,0
2017-10-14T00:11:26.152Z,0
2017-10-14T00:12:06.722Z,0
2017-10-14T00:12:47.310Z,0
2017-10-14T00:13:27.871Z,0
2017-10-14T00:14:08.441Z,0
2017-10-14T00:14:49.010Z,0
2017-10-14T00:15:29.589Z,0
2017-10-14T00:16:10.161Z,0
2017-10-14T00:16:50.721Z,0
2017-10-14T00:17:31.301Z,0
2017-10-14T00:18:11.896Z,0
2017-10-14T00:18:52.497Z,0
2017-10-14T00:19:33.050Z,0
2017-10-14T00:20:13.652Z,0
2017-10-14T00:20:54.193Z,0
2017-10-14T00:21:34.755Z,0
2017-10-14T00:22:15.312Z,0
2017-10-14T00:22:55.871Z,0
2017-10-14T00:23:36.439Z,0
2017-10-14T00:24:17.015Z,0
2017-10-14T00:24:57.596Z,0
2017-10-14T00:27:10.392Z,0
2017-10-14T00:27:50.949Z,0
2017-10-14T00:28:31.513Z,0
2017-10-14T00:29:12.097Z,0
2017-10-14T00:29:52.682Z,0
2017-10-14T00:30:33.259Z,0
2017-10-14T00:31:13.836Z,0
2017-10-14T00:31:54.393Z,0
2017-10-14T00:32:34.962Z,0
2017-10-14T00:33:15.571Z,0
2017-10-14T00:33:56.134Z,0
2017-10-14T00:34:36.729Z,0
2017-10-14T00:35:17.293Z,0
2017-10-14T00:35:57.871Z,0
2017-10-14T00:36:38.450Z,0
2017-10-14T00:37:19.043Z,0
2017-10-14T00:37:59.627Z,0
2017-10-14T00:38:40.222Z,0
2017-10-14T00:39:20.814Z,0
2017-10-14T00:40:01.403Z,0
2017-10-14T00:40:41.974Z,0
2017-10-14T00:41:22.565Z,0
2017-10-14T00:42:03.134Z,0
2017-10-14T00:42:43.700Z,0
2017-10-14T00:43:24.280Z,0
2017-10-14T00:44:04.859Z,0
2017-10-14T00:44:45.434Z,0
2017-10-14T00:45:26.014Z,0
2017-10-14T00:46:06.594Z,0
2017-10-14T00:46:47.172Z,0
2017-10-14T00:47:27.770Z,0
2017-10-14T00:48:08.361Z,0
2017-10-14T00:48:48.979Z,0
2017-10-14T00:49:29.558Z,0
2017-10-14T00:50:10.131Z,0
2017-10-14T00:50:50.748Z,0
2017-10-14T00:51:31.336Z,0
2017-10-14T00:52:11.907Z,0
2017-10-14T00:52:52.502Z,0
2017-10-14T00:53:33.100Z,0
2017-10-14T00:54:13.724Z,0
2017-10-14T00:54:54.328Z,0
2017-10-14T00:55:34.897Z,0
2017-10-14T00:56:15.461Z,0
2017-10-14T00:56:56.017Z,0
2017-10-14T00:57:36.585Z,0
2017-10-14T00:58:17.178Z,0
2017-10-14T00:58:57.758Z,0
2017-10-14T00:59:38.325Z,0
2017-10-14T01:00:18.912Z,0
2017-10-14T01:00:59.500Z,0
2017-10-14T01:01:40.070Z,0
2017-10-14T01:02:20.642Z,0
2017-10-14T01:03:01.234Z,0
2017-10-14T01:03:41.796Z,0
2017-10-14T01:04:22.360Z,0
2017-10-14T01:05:02.928Z,0
2017-10-14T01:05:43.491Z,0
2017-10-14T01:06:24.068Z,0
2017-10-14T01:07:04.654Z,0
2017-10-14T01:07:45.221Z,0
2017-10-14T01:08:25.775Z,0
2017-10-14T01:09:06.335Z,0
2017-10-14T01:09:46.893Z,0
2017-10-14T01:10:27.464Z,0
2017-10-14T01:11:08.039Z,0
2017-10-14T01:11:48.600Z,0
2017-10-14T01:12:29.171Z,0
2017-10-14T01:13:09.738Z,0
2017-10-14T01:13:50.395Z,0
2017-10-14T01:14:30.955Z,0
2017-10-14T01:15:11.513Z,0
2017-10-14T01:15:52.076Z,0
2017-10-14T01:16:32.669Z,0
2017-10-14T01:17:13.248Z,0
2017-10-14T01:17:53.853Z,0
2017-10-14T01:18:34.425Z,0
2017-10-14T01:19:15.009Z,0
2017-10-14T01:19:55.595Z,0
2017-10-14T01:20:36.153Z,0
2017-10-14T01:21:16.725Z,0
2017-10-14T01:21:57.315Z,0
2017-10-14T01:22:37.874Z,0
2017-10-14T01:23:18.524Z,0
2017-10-14T01:23:59.099Z,0
2017-10-14T01:24:39.685Z,0
2017-10-14T01:25:20.254Z,0
2017-10-14T01:26:00.837Z,0
2017-10-14T01:26:41.438Z,0
2017-10-14T01:27:22.006Z,0
2017-10-14T01:28:02.589Z,0
2017-10-14T01:28:43.192Z,0
2017-10-14T01:29:23.774Z,0
2017-10-14T01:30:04.337Z,0
2017-10-14T01:30:44.905Z,0
2017-10-14T01:31:25.465Z,0
2017-10-14T01:32:06.038Z,0
2017-10-14T01:32:46.607Z,0
2017-10-14T01:33:27.164Z,0
2017-10-14T01:34:07.757Z,0
2017-10-14T01:34:48.308Z,0
2017-10-14T01:35:28.864Z,0
2017-10-14T01:36:09.439Z,0
2017-10-14T01:36:50.003Z,0
2017-10-14T01:37:30.560Z,0
2017-10-14T01:38:11.125Z,0
2017-10-14T01:38:51.701Z,0
2017-10-14T01:39:32.345Z,0
2017-10-14T01:40:12.901Z,0
2017-10-14T01:40:53.487Z,0
2017-10-14T01:41:34.052Z,0
2017-10-14T01:42:14.614Z,0
2017-10-14T01:42:55.209Z,0
2017-10-14T01:43:35.763Z,0
2017-10-14T01:44:16.334Z,0
2017-10-14T01:44:56.920Z,0
2017-10-14T01:45:37.493Z,0
2017-10-14T01:46:18.063Z,0
2017-10-14T01:46:58.628Z,0
2017-10-14T01:47:39.213Z,0
2017-10-14T01:48:19.790Z,0
2017-10-14T01:49:00.376Z,0
2017-10-14T01:49:40.960Z,0
2017-10-14T01:50:21.537Z,0
2017-10-14T01:51:02.124Z,0
2017-10-14T01:51:42.770Z,0
2017-10-14T01:52:23.332Z,0
2017-10-14T01:53:03.924Z,0
2017-10-14T01:53:44.510Z,0
2017-10-14T01:54:25.116Z,0
2017-10-14T01:55:05.672Z,0
2017-10-14T01:55:46.240Z,0
2017-10-14T01:56:26.854Z,0
2017-10-14T01:57:07.424Z,0
2017-10-14T01:57:48.018Z,0
2017-10-14T01:58:28.612Z,0
2017-10-14T01:59:09.241Z,0
2017-10-14T01:59:49.825Z,0
2017-10-14T02:00:30.398Z,0
2017-10-14T02:01:10.972Z,0
2017-10-14T02:01:51.540Z,0
2017-10-14T02:02:32.113Z,0
2017-10-14T02:03:12.690Z,0
2017-10-14T02:03:53.255Z,0
2017-10-14T02:04:33.826Z,0
2017-10-14T02:05:14.399Z,0
2017-10-14T02:05:54.963Z,0
2017-10-14T02:06:35.530Z,0
2017-10-14T02:07:16.127Z,0
2017-10-14T02:07:56.699Z,0
2017-10-14T02:08:37.280Z,0
2017-10-14T02:09:17.853Z,0
2017-10-14T02:09:58.424Z,0
2017-10-14T02:10:38.991Z,0
2017-10-14T02:11:19.630Z,0
2017-10-14T02:12:00.211Z,0
2017-10-14T02:12:40.779Z,0
2017-10-14T02:13:21.337Z,0
2017-10-14T02:14:01.903Z,0
2017-10-14T02:14:42.460Z,0
2017-10-14T02:15:23.034Z,0
2017-10-14T02:16:03.629Z,0
2017-10-14T02:16:44.219Z,0
2017-10-14T02:17:24.779Z,0
2017-10-14T02:18:05.363Z,0
2017-10-14T02:18:45.934Z,0
2017-10-14T02:19:26.516Z,0
2017-10-14T02:20:07.092Z,0
2017-10-14T02:20:47.677Z,0
2017-10-14T02:21:28.276Z,0
2017-10-14T02:22:08.836Z,0
2017-10-14T02:22:49.431Z,0
2017-10-14T02:23:30.011Z,0
2017-10-14T02:24:10.582Z,0
2017-10-14T02:24:51.195Z,0
2017-10-14T02:25:31.788Z,0
2017-10-14T02:26:12.379Z,0
2017-10-14T02:26:54.856Z,0
2017-10-14T02:27:35.465Z,0
2017-10-14T02:28:16.040Z,0
2017-10-14T02:28:56.660Z,0
2017-10-14T02:29:37.225Z,0
2017-10-14T02:30:17.809Z,0
2017-10-14T02:30:58.378Z,0
2017-10-14T02:31:38.942Z,0
2017-10-14T02:32:19.507Z,0
2017-10-14T02:33:00.086Z,0
2017-10-14T02:33:40.685Z,0
2017-10-14T02:34:21.250Z,0
2017-10-14T02:35:01.817Z,0
2017-10-14T02:35:42.391Z,0
2017-10-14T02:36:23.002Z,0
2017-10-14T02:37:03.580Z,0
2017-10-14T02:37:44.169Z,0
2017-10-14T02:38:24.745Z,0
2017-10-14T02:39:05.319Z,0
2017-10-14T02:39:45.905Z,0
2017-10-14T02:40:26.477Z,0
2017-10-14T02:41:07.045Z,0
2017-10-14T02:41:47.620Z,0
2017-10-14T02:42:28.197Z,0
2017-10-14T02:43:08.753Z,0
2017-10-14T02:43:49.323Z,0
2017-10-14T02:44:29.881Z,0
2017-10-14T02:45:10.437Z,0
2017-10-14T02:45:50.996Z,0
2017-10-14T02:46:31.570Z,0
2017-10-14T02:47:12.115Z,0
2017-10-14T02:47:52.680Z,0
2017-10-14T02:48:33.249Z,0
2017-10-14T02:49:13.807Z,0
2017-10-14T02:49:54.371Z,0
2017-10-14T02:50:34.978Z,0
2017-10-14T02:51:15.528Z,0
2017-10-14T02:51:56.093Z,0
2017-10-14T02:52:36.657Z,0
2017-10-14T02:53:17.235Z,0
2017-10-14T02:53:57.809Z,0
2017-10-14T02:54:38.377Z,0
2017-10-14T02:55:18.949Z,0
2017-10-14T02:55:59.509Z,0
2017-10-14T02:56:40.088Z,0
2017-10-14T02:57:20.668Z,0
2017-10-14T02:58:01.233Z,0
2017-10-14T02:58:41.787Z,0
2017-10-14T02:59:22.353Z,0
2017-10-14T03:00:02.935Z,0
2017-10-14T03:00:43.522Z,0
2017-10-14T03:01:24.098Z,0
2017-10-14T03:02:04.653Z,0
2017-10-14T03:02:45.225Z,0
2017-10-14T03:03:25.798Z,0
2017-10-14T03:04:06.375Z,0
2017-10-14T03:04:46.948Z,0
2017-10-14T03:05:27.505Z,0
2017-10-14T03:06:08.075Z,0
2017-10-14T03:06:48.641Z,0
2017-10-14T03:07:29.218Z,0
2017-10-14T03:08:09.785Z,0
2017-10-14T03:08:50.349Z,0
2017-10-14T03:09:30.914Z,0
2017-10-14T03:10:11.480Z,0
2017-10-14T03:10:52.058Z,0
2017-10-14T03:11:32.624Z,0
2017-10-14T03:12:13.221Z,0
2017-10-14T03:12:53.796Z,0
2017-10-14T03:13:34.361Z,0
2017-10-14T03:14:14.928Z,0
2017-10-14T03:14:55.490Z,0
2017-10-14T03:15:36.076Z,0
2017-10-14T03:16:16.660Z,0
2017-10-14T03:16:57.227Z,0
2017-10-14T03:17:37.791Z,0
2017-10-14T03:18:18.372Z,0
2017-10-14T03:18:58.938Z,0
2017-10-14T03:19:39.505Z,0
2017-10-14T03:20:20.092Z,0
2017-10-14T03:21:00.647Z,0
2017-10-14T03:21:41.216Z,0
2017-10-14T03:22:21.800Z,0
2017-10-14T03:23:02.359Z,0
2017-10-14T03:23:42.947Z,0
2017-10-14T03:24:23.524Z,0
2017-10-14T03:25:04.112Z,0
2017-10-14T03:25:44.683Z,0
2017-10-14T03:26:25.276Z,0
2017-10-14T03:27:05.838Z,0
2017-10-14T03:27:46.403Z,0
2017-10-14T03:28:26.971Z,0
2017-10-14T03:29:07.536Z,0
2017-10-14T03:29:48.122Z,0
2017-10-14T03:30:28.676Z,0
2017-10-14T03:31:09.277Z,0
2017-10-14T03:31:49.821Z,0
2017-10-14T03:32:30.405Z,0
2017-10-14T03:33:10.984Z,0
2017-10-14T03:33:51.559Z,0
2017-10-14T03:34:32.135Z,0
2017-10-14T03:35:12.727Z,0
2017-10-14T03:35:53.297Z,0
2017-10-14T03:36:33.887Z,0
2017-10-14T03:37:14.446Z,0
2017-10-14T03:37:55.032Z,0
2017-10-14T03:38:35.612Z,0
2017-10-14T03:39:16.179Z,0
2017-10-14T03:39:56.765Z,0
2017-10-14T03:40:37.330Z,0
2017-10-14T03:41:17.899Z,0
2017-10-14T03:41:58.485Z,0
2017-10-14T03:42:39.058Z,0
2017-10-14T03:43:19.620Z,0
2017-10-14T03:44:00.213Z,0
2017-10-14T03:44:40.778Z,0
2017-10-14T03:45:21.361Z,0
2017-10-14T03:46:01.916Z,0
2017-10-14T03:46:42.480Z,0
2017-10-14T03:47:23.055Z,0
2017-10-14T03:48:03.606Z,0
2017-10-14T03:48:44.192Z,0
2017-10-14T03:49:24.758Z,0
2017-10-14T03:50:05.332Z,0
2017-10-14T03:50:45.900Z,0
2017-10-14T03:51:26.452Z,0
2017-10-14T03:52:07.012Z,0
2017-10-14T03:52:47.577Z,0
2017-10-14T03:53:28.147Z,0
2017-10-14T03:54:08.714Z,0
2017-10-14T03:54:49.289Z,0
2017-10-14T03:55:29.845Z,0
2017-10-14T03:56:10.412Z,0
2017-10-14T03:56:50.982Z,0
2017-10-14T03:57:31.589Z,0
2017-10-14T03:58:12.162Z,0
2017-10-14T03:58:52.733Z,0
2017-10-14T03:59:33.303Z,0
2017-10-14T04:00:13.870Z,0
2017-10-14T04:00:54.417Z,0
2017-10-14T04:01:35.008Z,0
2017-10-14T04:02:15.566Z,0
2017-10-14T04:02:56.158Z,0
2017-10-14T04:03:36.730Z,0
2017-10-14T04:04:17.294Z,0
2017-10-14T04:04:57.868Z,0
2017-10-14T04:05:38.431Z,0
2017-10-14T04:06:18.993Z,0
2017-10-14T04:06:59.555Z,0
2017-10-14T04:07:40.135Z,0
2017-10-14T04:08:20.693Z,0
2017-10-14T04:09:01.247Z,0
2017-10-14T04:09:41.860Z,0
2017-10-14T04:10:22.385Z,0
2017-10-14T04:11:02.984Z,0
2017-10-14T04:11:43.556Z,0
2017-10-14T04:12:24.114Z,0
2017-10-14T04:13:04.781Z,0
2017-10-14T04:13:45.347Z,0
2017-10-14T04:14:25.916Z,0
2017-10-14T04:15:06.484Z,0
2017-10-14T04:15:47.063Z,0
2017-10-14T04:16:27.623Z,0
2017-10-14T04:17:08.180Z,0
2017-10-14T04:17:48.738Z,0
2017-10-14T04:18:29.332Z,0
2017-10-14T04:19:09.895Z,0
2017-10-14T04:19:50.465Z,0
2017-10-14T04:20:31.039Z,0
2017-10-14T04:21:11.615Z,0
2017-10-14T04:21:52.172Z,0
2017-10-14T04:22:32.740Z,0
2017-10-14T04:23:13.312Z,0
2017-10-14T04:23:53.887Z,0
2017-10-14T04:24:34.452Z,0
2017-10-14T04:25:15.016Z,0
2017-10-14T04:25:55.578Z,0
2017-10-14T04:26:36.150Z,0
2017-10-14T04:27:16.726Z,0
2017-10-14T04:27:57.301Z,0
2017-10-14T04:28:37.877Z,0
2017-10-14T04:29:18.450Z,0
2017-10-14T04:29:59.024Z,0
2017-10-14T04:30:39.584Z,0
2017-10-14T04:31:20.168Z,0
2017-10-14T04:32:00.728Z,0
2017-10-14T04:32:41.287Z,0
2017-10-14T04:33:21.870Z,0
2017-10-14T04:34:02.459Z,0
2017-10-14T04:34:43.055Z,0
2017-10-14T04:35:23.627Z,0
2017-10-14T04:36:04.187Z,0
2017-10-14T04:36:44.755Z,0
2017-10-14T04:37:25.324Z,0
2017-10-14T04:38:05.888Z,0
2017-10-14T04:38:46.458Z,0
2017-10-14T04:39:27.043Z,0
2017-10-14T04:40:07.604Z,0
2017-10-14T04:40:48.201Z,0
2017-10-14T04:41:28.761Z,0
2017-10-14T04:42:09.324Z,0
2017-10-14T04:42:49.901Z,0
2017-10-14T04:43:30.473Z,0
2017-10-14T04:44:11.064Z,0
2017-10-14T04:44:51.636Z,0
2017-10-14T04:45:32.200Z,0
2017-10-14T04:46:12.770Z,0
2017-10-14T04:46:53.342Z,0
2017-10-14T04:47:33.927Z,0
2017-10-14T04:48:14.509Z,0
2017-10-14T04:48:55.065Z,0
2017-10-14T04:49:35.652Z,0
2017-10-14T04:50:16.237Z,0
2017-10-14T04:50:56.805Z,0
2017-10-14T04:51:37.382Z,0
2017-10-14T04:52:17.947Z,0
2017-10-14T04:52:58.546Z,0
2017-10-14T04:53:39.111Z,0
2017-10-14T04:54:19.669Z,0
2017-10-14T04:55:00.250Z,0
2017-10-14T04:55:40.831Z,0
2017-10-14T04:56:21.398Z,0
2017-10-14T04:57:01.963Z,0
2017-10-14T04:57:42.564Z,0
2017-10-14T04:58:23.143Z,0
2017-10-14T04:59:03.734Z,0
2017-10-14T04:59:44.289Z,0
2017-10-14T05:00:24.887Z,0
2017-10-14T05:01:05.448Z,0
2017-10-14T05:01:46.009Z,0
2017-10-14T05:02:26.574Z,0
2017-10-14T05:03:07.147Z,0
2017-10-14T05:03:47.713Z,0
2017-10-14T05:04:28.276Z,0
2017-10-14T05:05:08.852Z,0
2017-10-14T05:05:49.439Z,0
2017-10-14T05:06:30.014Z,0
2017-10-14T05:07:10.599Z,0
2017-10-14T05:07:51.167Z,0
2017-10-14T05:08:31.745Z,0
2017-10-14T05:09:12.313Z,0
2017-10-14T05:09:52.867Z,0
2017-10-14T05:10:33.435Z,0
2017-10-14T05:11:14.054Z,0
2017-10-14T05:11:54.622Z,0
2017-10-14T05:12:35.191Z,0
2017-10-14T05:13:15.758Z,0
2017-10-14T05:13:56.320Z,0
2017-10-14T05:14:36.898Z,0
2017-10-14T05:15:17.456Z,0
2017-10-14T05:15:58.028Z,0
2017-10-14T05:16:38.596Z,0
2017-10-14T05:17:19.163Z,0
2017-10-14T05:17:59.745Z,0
2017-10-14T05:18:40.310Z,0
2017-10-14T05:19:20.878Z,0
2017-10-14T05:20:01.448Z,0
2017-10-14T05:20:42.025Z,0
2017-10-14T05:21:22.581Z,0
2017-10-14T05:22:03.139Z,0
2017-10-14T05:22:43.710Z,0
2017-10-14T05:23:24.269Z,0
2017-10-14T05:24:04.829Z,0
2017-10-14T05:24:45.431Z,0
2017-10-14T05:25:25.954Z,0
2017-10-14T05:26:06.514Z,0
2017-10-14T05:26:47.087Z,0
2017-10-14T05:27:27.651Z,0
2017-10-14T05:28:08.209Z,0
2017-10-14T05:28:48.775Z,0
2017-10-14T05:29:29.342Z,0
2017-10-14T05:30:09.905Z,0
2017-10-14T05:30:50.473Z,0
2017-10-14T05:31:31.064Z,0
2017-10-14T05:32:11.651Z,0
2017-10-14T05:32:52.222Z,0
2017-10-14T05:33:32.794Z,0
2017-10-14T05:34:13.360Z,0
2017-10-14T05:34:53.937Z,0
2017-10-14T05:35:34.512Z,0
2017-10-14T05:36:15.071Z,0
2017-10-14T05:36:55.671Z,0
2017-10-14T05:37:36.241Z,0
2017-10-14T05:38:16.826Z,0
2017-10-14T05:38:57.456Z,0
2017-10-14T05:39:38.005Z,0
2017-10-14T05:40:18.575Z,0
2017-10-14T05:40:59.149Z,0
2017-10-14T05:41:39.722Z,0
2017-10-14T05:42:20.282Z,0
2017-10-14T05:43:00.858Z,0
2017-10-14T05:43:41.435Z,0
2017-10-14T05:44:22.013Z,0
2017-10-14T05:45:02.601Z,0
2017-10-14T05:45:43.161Z,0
2017-10-14T05:46:23.729Z,0
2017-10-14T05:47:04.292Z,0
2017-10-14T05:47:44.877Z,0
2017-10-14T05:48:25.484Z,0
2017-10-14T05:49:06.085Z,0
2017-10-14T05:49:46.701Z,0
2017-10-14T05:50:27.271Z,0
2017-10-14T05:51:07.840Z,0
2017-10-14T05:51:48.434Z,0
2017-10-14T05:52:29.032Z,0
2017-10-14T05:53:09.591Z,0
2017-10-14T05:53:50.161Z,0
2017-10-14T05:54:30.726Z,0
2017-10-14T05:55:11.343Z,0
2017-10-14T05:55:51.918Z,0
2017-10-14T05:56:32.488Z,0
2017-10-14T05:57:13.063Z,0
2017-10-14T05:57:53.633Z,0
2017-10-14T05:58:34.190Z,0
2017-10-14T05:59:14.761Z,0
2017-10-14T05:59:55.323Z,0
2017-10-14T06:00:35.894Z,0
2017-10-14T06:01:16.471Z,0
2017-10-14T06:01:57.043Z,0
2017-10-14T06:02:37.609Z,0
2017-10-14T06:03:18.190Z,0
2017-10-14T06:03:58.764Z,0
2017-10-14T06:04:39.337Z,0
2017-10-14T06:05:19.920Z,0
2017-10-14T06:06:00.492Z,0
2017-10-14T06:06:41.082Z,0
2017-10-14T06:07:21.676Z,0
2017-10-14T06:08:02.233Z,0
2017-10-14T06:08:42.834Z,0
2017-10-14T06:09:23.394Z,0
2017-10-14T06:10:03.989Z,0
2017-10-14T06:10:44.546Z,0
2017-10-14T06:11:25.122Z,0
2017-10-14T06:12:05.698Z,0
2017-10-14T06:12:46.268Z,0
2017-10-14T06:13:26.840Z,0
2017-10-14T06:14:07.416Z,0
2017-10-14T06:14:47.995Z,0
2017-10-14T06:15:28.581Z,0
2017-10-14T06:16:09.167Z,0
2017-10-14T06:16:49.734Z,0
2017-10-14T06:17:30.327Z,0
2017-10-14T06:18:10.883Z,0
2017-10-14T06:18:51.507Z,0
2017-10-14T06:19:32.108Z,0
2017-10-14T06:20:12.695Z,0
2017-10-14T06:20:53.263Z,0
2017-10-14T06:21:33.824Z,0
2017-10-14T06:22:14.400Z,0
2017-10-14T06:22:54.987Z,0
2017-10-14T06:23:35.555Z,0
2017-10-14T06:24:16.133Z,0
2017-10-14T06:24:56.708Z,0
2017-10-14T06:25:37.271Z,0
2017-10-14T06:26:17.833Z,0
2017-10-14T06:26:58.393Z,0
2017-10-14T06:27:38.969Z,0
2017-10-14T06:28:19.537Z,0
2017-10-14T06:29:00.111Z,0
2017-10-14T06:29:40.675Z,0
2017-10-14T06:30:21.264Z,0
2017-10-14T06:31:01.811Z,0
2017-10-14T06:31:42.370Z,0
2017-10-14T06:32:22.939Z,0
2017-10-14T06:33:03.500Z,5
2017-10-14T06:33:44.068Z,5
2017-10-14T06:34:24.625Z,5
2017-10-14T06:35:05.209Z,5
2017-10-14T06:35:45.781Z,5
2017-10-14T06:36:26.370Z,5
2017-10-14T06:37:06.943Z,5
2017-10-14T06:37:47.507Z,5
2017-10-14T06:38:28.067Z,5
2017-10-14T06:39:08.636Z,5
2017-10-14T06:39:49.200Z,5
2017-10-14T06:40:29.771Z,5
2017-10-14T06:41:10.323Z,5
2017-10-14T06:41:50.889Z,5
2017-10-14T06:42:31.461Z,5
2017-10-14T06:43:12.022Z,5
2017-10-14T06:43:52.592Z,5
2017-10-14T06:44:33.159Z,5
2017-10-14T06:45:13.739Z,10
2017-10-14T06:45:54.334Z,10
2017-10-14T06:46:34.905Z,10
2017-10-14T06:47:15.495Z,10
2017-10-14T06:47:56.066Z,10
2017-10-14T06:48:36.628Z,10
2017-10-14T06:49:17.193Z,15
2017-10-14T06:49:57.784Z,15
2017-10-14T06:50:38.347Z,15
2017-10-14T06:51:18.922Z,15
2017-10-14T06:51:59.485Z,15
2017-10-14T06:52:40.045Z,15
2017-10-14T06:53:20.622Z,15
2017-10-14T06:54:01.190Z,15
2017-10-14T06:54:41.751Z,15
2017-10-14T06:55:22.342Z,15
2017-10-14T06:56:02.933Z,15
2017-10-14T06:56:43.508Z,15
2017-10-14T06:57:24.083Z,15
2017-10-14T06:58:04.676Z,15
2017-10-14T06:58:45.240Z,15
2017-10-14T06:59:25.820Z,15
2017-10-14T07:00:06.404Z,15
2017-10-14T07:00:46.985Z,20
2017-10-14T07:01:27.577Z,20
2017-10-14T07:02:08.144Z,20
2017-10-14T07:02:48.720Z,20
2017-10-14T07:03:29.360Z,20
2017-10-14T07:04:09.960Z,20
2017-10-14T07:04:50.529Z,20
2017-10-14T07:05:31.622Z,25
2017-10-14T07:06:12.175Z,25
2017-10-14T07:06:52.754Z,25
2017-10-14T07:07:33.546Z,25
2017-10-14T07:08:14.472Z,25
2017-10-14T07:08:55.053Z,25
2017-10-14T07:09:35.636Z,25
2017-10-14T07:10:16.195Z,30
2017-10-14T07:10:56.770Z,30
2017-10-14T07:11:37.355Z,30
2017-10-14T07:12:17.918Z,30
2017-10-14T07:12:58.487Z,30
2017-10-14T07:13:39.086Z,30
2017-10-14T07:14:19.662Z,25
2017-10-14T07:15:00.288Z,25
2017-10-14T07:15:40.878Z,25
2017-10-14T07:16:21.520Z,25
2017-10-14T07:17:02.092Z,25
2017-10-14T07:17:42.665Z,25
2017-10-14T07:18:23.259Z,30
2017-10-14T07:19:03.827Z,30
2017-10-14T07:19:44.429Z,30
2017-10-14T07:20:25.016Z,35
2017-10-14T07:21:05.587Z,35
2017-10-14T07:21:46.215Z,40
2017-10-14T07:22:26.772Z,40
2017-10-14T07:23:07.341Z,40
2017-10-14T07:23:47.937Z,35
2017-10-14T07:24:28.527Z,35
2017-10-14T07:25:09.093Z,35
2017-10-14T07:25:49.694Z,35
2017-10-14T07:26:30.256Z,40
2017-10-14T07:27:10.846Z,40
2017-10-14T07:27:51.430Z,40
2017-10-14T07:28:32.014Z,35
2017-10-14T07:29:12.588Z,35
2017-10-14T07:29:53.139Z,35
2017-10-14T07:30:33.701Z,35
2017-10-14T07:31:14.268Z,40
2017-10-14T07:31:54.842Z,40
2017-10-14T07:32:35.408Z,45
2017-10-14T07:33:16.020Z,45
2017-10-14T07:33:56.597Z,40
2017-10-14T07:34:37.165Z,40
2017-10-14T07:35:17.748Z,35
2017-10-14T07:35:58.323Z,35
2017-10-14T07:36:38.887Z,35
2017-10-14T07:37:19.469Z,35
2017-10-14T07:38:00.042Z,30
2017-10-14T07:38:40.595Z,30
2017-10-14T07:39:21.180Z,30
2017-10-14T07:40:01.772Z,25
2017-10-14T07:40:42.344Z,25
2017-10-14T07:41:23.076Z,30
2017-10-14T07:42:03.646Z,30
2017-10-14T07:42:44.229Z,30
2017-10-14T07:43:24.804Z,25
2017-10-14T07:44:05.380Z,25
2017-10-14T07:44:46.012Z,25
2017-10-14T07:45:27.941Z,25
2017-10-14T07:46:08.492Z,25
2017-10-14T07:46:49.061Z,25
2017-10-14T07:47:29.642Z,25
2017-10-14T07:48:10.238Z,30
2017-10-14T07:48:50.806Z,30
2017-10-14T07:49:31.412Z,30
2017-10-14T07:50:12.008Z,30
2017-10-14T07:50:52.597Z,35
2017-10-14T07:51:33.303Z,40
2017-10-14T07:52:14.033Z,45
2017-10-14T07:52:54.593Z,55
2017-10-14T07:53:35.156Z,65
2017-10-14T07:54:15.717Z,65
2017-10-14T07:54:56.281Z,75
2017-10-14T07:55:36.877Z,95
2017-10-14T07:56:17.458Z,110
2017-10-14T07:56:58.054Z,130
2017-10-14T07:57:38.655Z,150
2017-10-14T07:58:19.231Z,170
2017-10-14T07:58:59.798Z,195
2017-10-14T07:59:40.388Z,175
2017-10-14T08:00:20.965Z,140
2017-10-14T08:01:01.530Z,180
2017-10-14T08:01:42.092Z,245
2017-10-14T08:02:22.657Z,200
2017-10-14T08:03:03.231Z,155
2017-10-14T08:03:43.826Z,125
2017-10-14T08:04:24.575Z,115
2017-10-14T08:05:05.144Z,110
2017-10-14T08:05:45.718Z,100
2017-10-14T08:06:26.292Z,100
2017-10-14T08:07:06.855Z,100
2017-10-14T08:07:47.450Z,105
2017-10-14T08:08:28.019Z,105
2017-10-14T08:09:08.605Z,140
2017-10-14T08:09:49.181Z,280
2017-10-14T08:10:29.756Z,430
2017-10-14T08:11:10.328Z,240
2017-10-14T08:11:50.916Z,200
2017-10-14T08:12:31.472Z,195
2017-10-14T08:13:12.039Z,245
2017-10-14T08:13:52.632Z,235
2017-10-14T08:14:33.202Z,130
2017-10-14T08:15:13.799Z,125
2017-10-14T08:15:54.361Z,135
2017-10-14T08:16:34.937Z,205
2017-10-14T08:17:15.512Z,175
2017-10-14T08:17:56.107Z,140
2017-10-14T08:18:36.717Z,125
2017-10-14T08:19:17.384Z,100
2017-10-14T08:19:57.947Z,75
2017-10-14T08:20:38.510Z,65
2017-10-14T08:21:19.138Z,75
2017-10-14T08:21:59.707Z,80
2017-10-14T08:22:40.279Z,75
2017-10-14T08:23:20.877Z,75
2017-10-14T08:24:01.442Z,85
2017-10-14T08:24:42.009Z,105
2017-10-14T08:25:22.583Z,85
2017-10-14T08:26:03.159Z,70
2017-10-14T08:26:43.734Z,65
2017-10-14T08:27:24.332Z,60
2017-10-14T08:28:04.906Z,50
2017-10-14T08:28:45.478Z,50
2017-10-14T08:29:26.045Z,55
2017-10-14T08:30:06.659Z,50
2017-10-14T08:30:47.231Z,50
2017-10-14T08:31:27.790Z,45
2017-10-14T08:32:08.355Z,45
2017-10-14T08:32:48.921Z,40
2017-10-14T08:33:29.491Z,40
2017-10-14T08:34:10.053Z,40
2017-10-14T08:34:50.620Z,45
2017-10-14T08:35:31.187Z,40
2017-10-14T08:36:11.742Z,40
2017-10-14T08:36:52.304Z,40
2017-10-14T08:37:32.871Z,35
2017-10-14T08:38:13.443Z,35
2017-10-14T08:38:54.010Z,35
2017-10-14T08:39:34.598Z,40
2017-10-14T08:40:15.179Z,40
2017-10-14T08:40:55.762Z,40
2017-10-14T08:41:36.328Z,45
2017-10-14T08:42:16.912Z,45
2017-10-14T08:42:57.478Z,50
2017-10-14T08:43:38.045Z,50
2017-10-14T08:44:18.621Z,55
2017-10-14T08:44:59.207Z,60
2017-10-14T08:45:40.328Z,65
2017-10-14T08:46:20.921Z,65
2017-10-14T08:47:01.480Z,65
2017-10-14T08:47:42.053Z,65
2017-10-14T08:48:23.441Z,65
2017-10-14T08:49:04.032Z,60
2017-10-14T08:49:44.636Z,65
2017-10-14T08:50:25.197Z,55
2017-10-14T08:51:05.773Z,55
2017-10-14T08:51:46.342Z,50
2017-10-14T08:52:26.916Z,40
2017-10-14T08:53:07.477Z,30
2017-10-14T08:53:48.040Z,30
2017-10-14T08:54:28.653Z,30
2017-10-14T08:55:09.285Z,30
2017-10-14T08:55:49.869Z,35
2017-10-14T08:56:30.449Z,35
2017-10-14T08:57:11.025Z,35
2017-10-14T08:57:51.585Z,35
2017-10-14T08:58:32.156Z,30
2017-10-14T08:59:12.840Z,30
2017-10-14T08:59:53.660Z,30
2017-10-14T09:00:34.474Z,30
2017-10-14T09:01:15.088Z,25
2017-10-14T09:01:55.802Z,25
2017-10-14T09:02:36.377Z,25
2017-10-14T09:03:16.939Z,25
2017-10-14T09:03:57.503Z,30
2017-10-14T09:04:38.077Z,30
2017-10-14T09:05:18.640Z,30
2017-10-14T09:05:59.211Z,30
2017-10-14T09:06:39.787Z,30
2017-10-14T09:07:20.374Z,30
2017-10-14T09:08:00.992Z,30
2017-10-14T09:08:41.559Z,30
2017-10-14T09:09:22.236Z,30
2017-10-14T09:10:02.958Z,30
2017-10-14T09:10:43.533Z,30
2017-10-14T09:11:24.104Z,30
2017-10-14T09:12:04.671Z,30
2017-10-14T09:12:45.295Z,35
2017-10-14T09:13:25.873Z,35
2017-10-14T09:14:06.442Z,40
2017-10-14T09:14:47.068Z,40
2017-10-14T09:15:27.675Z,40
2017-10-14T09:16:08.249Z,40
2017-10-14T09:16:48.974Z,45
2017-10-14T09:17:29.639Z,45
2017-10-14T09:18:10.325Z,45
2017-10-14T09:18:51.030Z,50
2017-10-14T09:19:31.689Z,45
2017-10-14T09:20:12.435Z,45
2017-10-14T09:20:53.280Z,45
2017-10-14T09:21:33.917Z,40
2017-10-14T09:22:14.489Z,40
2017-10-14T09:22:55.070Z,40
2017-10-14T09:23:35.631Z,40
2017-10-14T09:24:16.199Z,35
2017-10-14T09:24:56.797Z,35
2017-10-14T09:25:37.377Z,35
2017-10-14T09:26:18.311Z,35
2017-10-14T09:26:58.941Z,35
2017-10-14T09:27:39.553Z,35
2017-10-14T09:28:20.209Z,35
2017-10-14T09:29:00.829Z,35
2017-10-14T09:29:41.848Z,35
2017-10-14T09:30:22.558Z,35
2017-10-14T09:31:03.125Z,35
2017-10-14T09:31:43.700Z,35
2017-10-14T09:32:24.267Z,30
2017-10-14T09:33:13.361Z,30
2017-10-14T09:33:57.696Z,30
2017-10-14T09:34:42.520Z,30
2017-10-14T09:35:23.092Z,30
2017-10-14T09:36:03.701Z,30
2017-10-14T09:36:44.267Z,30
2017-10-14T09:37:24.823Z,30
2017-10-14T09:38:05.399Z,30
2017-10-14T09:38:45.996Z,30
2017-10-14T09:39:26.592Z,30
2017-10-14T09:40:07.173Z,35
2017-10-14T09:40:47.754Z,35
2017-10-14T09:41:28.349Z,35
2017-10-14T09:42:08.949Z,35
2017-10-14T09:42:49.521Z,35
2017-10-14T09:43:30.121Z,35
2017-10-14T09:44:10.678Z,35
2017-10-14T09:44:51.260Z,35
2017-10-14T09:45:31.832Z,35
2017-10-14T09:46:12.403Z,30
2017-10-14T09:46:52.976Z,30
2017-10-14T09:47:33.543Z,30
2017-10-14T09:48:14.103Z,30
2017-10-14T09:48:54.673Z,30
2017-10-14T09:49:35.240Z,30
2017-10-14T09:50:15.812Z,30
2017-10-14T09:50:56.402Z,30
2017-10-14T09:51:36.967Z,30
2017-10-14T09:52:17.548Z,30
2017-10-14T09:52:58.167Z,30
2017-10-14T09:53:38.734Z,30
2017-10-14T09:54:19.320Z,30